sensor_id;sensor_type;location;lat;lon;timestamp;P1;durP1;ratioP1;P2;durP2;ratioP2
7375;SDS011;3728;42.266;24.944;2023-02-15T00:00:19;32.33;;;19.70;;
7375;SDS011;3728;42.266;24.944;2023-02-15T00:02:47;38.93;;;20.17;;
7375;SDS011;3728;42.266;24.944;2023-02-15T00:05:14;33.63;;;17.53;;
7375;SDS011;3728;42.266;24.944;2023-02-15T00:07:42;23.17;;;14.90;;
7375;SDS011;3728;42.266;24.944;2023-02-15T00:10:09;20.57;;;14.00;;
7375;SDS011;3728;42.266;24.944;2023-02-15T00:12:38;18.83;;;12.50;;
7375;SDS011;3728;42.266;24.944;2023-02-15T00:15:05;17.30;;;12.67;;
7375;SDS011;3728;42.266;24.944;2023-02-15T00:17:33;17.83;;;13.73;;
7375;SDS011;3728;42.266;24.944;2023-02-15T00:20:01;18.83;;;12.90;;
7375;SDS011;3728;42.266;24.944;2023-02-15T00:22:29;16.47;;;12.77;;
7375;SDS011;3728;42.266;24.944;2023-02-15T00:24:56;16.77;;;12.97;;
7375;SDS011;3728;42.266;24.944;2023-02-15T00:27:23;18.00;;;12.80;;
7375;SDS011;3728;42.266;24.944;2023-02-15T00:29:51;17.90;;;13.23;;
7375;SDS011;3728;42.266;24.944;2023-02-15T00:32:18;26.13;;;15.30;;
7375;SDS011;3728;42.266;24.944;2023-02-15T00:34:47;22.93;;;15.63;;
7375;SDS011;3728;42.266;24.944;2023-02-15T00:37:15;20.67;;;14.83;;
7375;SDS011;3728;42.266;24.944;2023-02-15T00:39:46;22.70;;;15.83;;
7375;SDS011;3728;42.266;24.944;2023-02-15T00:42:13;23.57;;;13.90;;
7375;SDS011;3728;42.266;24.944;2023-02-15T00:44:41;20.17;;;13.50;;
7375;SDS011;3728;42.266;24.944;2023-02-15T00:47:08;20.10;;;13.60;;
7375;SDS011;3728;42.266;24.944;2023-02-15T00:49:35;21.17;;;14.77;;
7375;SDS011;3728;42.266;24.944;2023-02-15T00:52:04;22.63;;;15.27;;
7375;SDS011;3728;42.266;24.944;2023-02-15T00:54:32;22.80;;;16.43;;
7375;SDS011;3728;42.266;24.944;2023-02-15T00:57:00;24.00;;;17.30;;
7375;SDS011;3728;42.266;24.944;2023-02-15T00:59:28;24.90;;;17.73;;
7375;SDS011;3728;42.266;24.944;2023-02-15T01:01:56;22.47;;;16.77;;
7375;SDS011;3728;42.266;24.944;2023-02-15T01:04:23;27.97;;;16.50;;
7375;SDS011;3728;42.266;24.944;2023-02-15T01:06:51;23.27;;;16.67;;
7375;SDS011;3728;42.266;24.944;2023-02-15T01:09:18;25.10;;;15.47;;
7375;SDS011;3728;42.266;24.944;2023-02-15T01:11:46;23.57;;;16.77;;
7375;SDS011;3728;42.266;24.944;2023-02-15T01:14:13;22.83;;;14.60;;
7375;SDS011;3728;42.266;24.944;2023-02-15T01:16:41;24.57;;;17.23;;
7375;SDS011;3728;42.266;24.944;2023-02-15T01:19:08;27.77;;;18.63;;
7375;SDS011;3728;42.266;24.944;2023-02-15T01:21:37;27.17;;;18.20;;
7375;SDS011;3728;42.266;24.944;2023-02-15T01:24:12;24.83;;;16.90;;
7375;SDS011;3728;42.266;24.944;2023-02-15T01:26:40;26.87;;;18.87;;
7375;SDS011;3728;42.266;24.944;2023-02-15T01:29:08;32.50;;;19.93;;
7375;SDS011;3728;42.266;24.944;2023-02-15T01:31:35;32.80;;;20.50;;
7375;SDS011;3728;42.266;24.944;2023-02-15T01:34:05;34.23;;;20.47;;
7375;SDS011;3728;42.266;24.944;2023-02-15T01:36:33;34.67;;;20.20;;
7375;SDS011;3728;42.266;24.944;2023-02-15T01:39:01;29.80;;;20.47;;
7375;SDS011;3728;42.266;24.944;2023-02-15T01:41:30;31.93;;;20.30;;
7375;SDS011;3728;42.266;24.944;2023-02-15T01:44:00;31.23;;;19.40;;
7375;SDS011;3728;42.266;24.944;2023-02-15T01:46:40;30.80;;;19.87;;
7375;SDS011;3728;42.266;24.944;2023-02-15T01:49:17;32.67;;;19.23;;
7375;SDS011;3728;42.266;24.944;2023-02-15T01:51:50;30.33;;;20.20;;
7375;SDS011;3728;42.266;24.944;2023-02-15T01:54:29;32.53;;;19.53;;
7375;SDS011;3728;42.266;24.944;2023-02-15T01:57:05;34.37;;;20.73;;
7375;SDS011;3728;42.266;24.944;2023-02-15T01:59:37;27.63;;;16.67;;
7375;SDS011;3728;42.266;24.944;2023-02-15T02:02:09;24.77;;;16.50;;
7375;SDS011;3728;42.266;24.944;2023-02-15T02:04:48;23.90;;;16.40;;
7375;SDS011;3728;42.266;24.944;2023-02-15T02:07:26;24.07;;;17.00;;
7375;SDS011;3728;42.266;24.944;2023-02-15T02:09:58;25.10;;;17.50;;
7375;SDS011;3728;42.266;24.944;2023-02-15T02:12:28;28.93;;;16.87;;
7375;SDS011;3728;42.266;24.944;2023-02-15T02:14:56;47.10;;;23.97;;
7375;SDS011;3728;42.266;24.944;2023-02-15T02:20:59;47.97;;;25.77;;
7375;SDS011;3728;42.266;24.944;2023-02-15T02:23:49;35.67;;;20.10;;
7375;SDS011;3728;42.266;24.944;2023-02-15T02:39:32;45.27;;;23.27;;
7375;SDS011;3728;42.266;24.944;2023-02-15T02:42:33;47.60;;;22.83;;
7375;SDS011;3728;42.266;24.944;2023-02-15T02:45:39;40.17;;;21.40;;
7375;SDS011;3728;42.266;24.944;2023-02-15T02:48:33;35.20;;;19.03;;
7375;SDS011;3728;42.266;24.944;2023-02-15T02:51:15;36.80;;;20.00;;
7375;SDS011;3728;42.266;24.944;2023-02-15T02:54:03;27.97;;;17.20;;
7375;SDS011;3728;42.266;24.944;2023-02-15T02:56:36;26.33;;;15.33;;
7375;SDS011;3728;42.266;24.944;2023-02-15T02:59:17;14.77;;;11.37;;
7375;SDS011;3728;42.266;24.944;2023-02-15T03:01:58;15.97;;;10.80;;
7375;SDS011;3728;42.266;24.944;2023-02-15T03:04:46;15.57;;;11.30;;
7375;SDS011;3728;42.266;24.944;2023-02-15T03:07:25;19.53;;;13.37;;
7375;SDS011;3728;42.266;24.944;2023-02-15T03:09:58;17.83;;;11.17;;
7375;SDS011;3728;42.266;24.944;2023-02-15T03:12:31;22.13;;;13.97;;
7375;SDS011;3728;42.266;24.944;2023-02-15T03:15:05;24.37;;;13.10;;
7375;SDS011;3728;42.266;24.944;2023-02-15T03:17:49;23.13;;;12.83;;
7375;SDS011;3728;42.266;24.944;2023-02-15T03:20:24;22.17;;;12.53;;
7375;SDS011;3728;42.266;24.944;2023-02-15T03:23:02;18.97;;;12.60;;
7375;SDS011;3728;42.266;24.944;2023-02-15T03:25:37;17.93;;;13.43;;
7375;SDS011;3728;42.266;24.944;2023-02-15T03:28:13;20.77;;;13.23;;
7375;SDS011;3728;42.266;24.944;2023-02-15T03:30:48;119.20;;;50.20;;
7375;SDS011;3728;42.266;24.944;2023-02-15T03:33:20;32.87;;;19.53;;
7375;SDS011;3728;42.266;24.944;2023-02-15T03:36:09;67.20;;;43.83;;
7375;SDS011;3728;42.266;24.944;2023-02-15T03:41:48;21.93;;;15.47;;
7375;SDS011;3728;42.266;24.944;2023-02-15T03:44:27;17.90;;;10.87;;
7375;SDS011;3728;42.266;24.944;2023-02-15T03:47:00;14.23;;;10.93;;
7375;SDS011;3728;42.266;24.944;2023-02-15T03:49:50;29.93;;;16.10;;
7375;SDS011;3728;42.266;24.944;2023-02-15T03:52:25;32.90;;;16.37;;
7375;SDS011;3728;42.266;24.944;2023-02-15T03:54:54;35.73;;;19.80;;
7375;SDS011;3728;42.266;24.944;2023-02-15T03:57:26;118.70;;;73.43;;
7375;SDS011;3728;42.266;24.944;2023-02-15T04:00:18;18.70;;;13.20;;
7375;SDS011;3728;42.266;24.944;2023-02-15T04:05:50;20.47;;;12.73;;
7375;SDS011;3728;42.266;24.944;2023-02-15T04:08:17;36.13;;;19.43;;
7375;SDS011;3728;42.266;24.944;2023-02-15T04:10:45;29.37;;;17.03;;
7375;SDS011;3728;42.266;24.944;2023-02-15T04:13:19;31.30;;;17.23;;
7375;SDS011;3728;42.266;24.944;2023-02-15T04:15:49;22.53;;;15.23;;
7375;SDS011;3728;42.266;24.944;2023-02-15T04:18:42;22.97;;;12.63;;
7375;SDS011;3728;42.266;24.944;2023-02-15T04:21:29;20.60;;;12.93;;
7375;SDS011;3728;42.266;24.944;2023-02-15T04:24:16;19.87;;;14.63;;
7375;SDS011;3728;42.266;24.944;2023-02-15T04:27:03;20.53;;;14.77;;
7375;SDS011;3728;42.266;24.944;2023-02-15T04:29:32;20.93;;;15.27;;
7375;SDS011;3728;42.266;24.944;2023-02-15T04:32:00;22.67;;;15.73;;
7375;SDS011;3728;42.266;24.944;2023-02-15T04:34:28;26.07;;;15.67;;
7375;SDS011;3728;42.266;24.944;2023-02-15T04:36:56;30.10;;;17.07;;
7375;SDS011;3728;42.266;24.944;2023-02-15T04:39:23;45.63;;;19.87;;
7375;SDS011;3728;42.266;24.944;2023-02-15T04:41:51;32.07;;;18.17;;
7375;SDS011;3728;42.266;24.944;2023-02-15T04:44:18;29.77;;;17.83;;
7375;SDS011;3728;42.266;24.944;2023-02-15T04:46:46;30.13;;;16.23;;
7375;SDS011;3728;42.266;24.944;2023-02-15T04:49:13;28.37;;;17.43;;
7375;SDS011;3728;42.266;24.944;2023-02-15T04:51:41;43.33;;;25.63;;
7375;SDS011;3728;42.266;24.944;2023-02-15T04:54:09;47.07;;;23.87;;
7375;SDS011;3728;42.266;24.944;2023-02-15T04:56:36;43.57;;;25.00;;
7375;SDS011;3728;42.266;24.944;2023-02-15T04:59:05;37.33;;;24.63;;
7375;SDS011;3728;42.266;24.944;2023-02-15T05:01:33;37.50;;;25.20;;
7375;SDS011;3728;42.266;24.944;2023-02-15T05:04:00;42.90;;;27.53;;
7375;SDS011;3728;42.266;24.944;2023-02-15T05:06:28;37.07;;;26.20;;
7375;SDS011;3728;42.266;24.944;2023-02-15T05:08:56;44.43;;;28.57;;
7375;SDS011;3728;42.266;24.944;2023-02-15T05:11:25;43.90;;;30.17;;
7375;SDS011;3728;42.266;24.944;2023-02-15T05:13:54;44.87;;;29.07;;
7375;SDS011;3728;42.266;24.944;2023-02-15T05:16:22;33.00;;;22.87;;
7375;SDS011;3728;42.266;24.944;2023-02-15T05:18:49;39.90;;;20.80;;
7375;SDS011;3728;42.266;24.944;2023-02-15T05:21:20;39.13;;;20.03;;
7375;SDS011;3728;42.266;24.944;2023-02-15T05:23:47;37.83;;;20.93;;
7375;SDS011;3728;42.266;24.944;2023-02-15T05:26:19;37.13;;;22.10;;
7375;SDS011;3728;42.266;24.944;2023-02-15T05:29:08;35.47;;;21.37;;
7375;SDS011;3728;42.266;24.944;2023-02-15T05:31:36;38.17;;;24.00;;
7375;SDS011;3728;42.266;24.944;2023-02-15T05:34:05;35.20;;;22.27;;
7375;SDS011;3728;42.266;24.944;2023-02-15T05:36:32;40.53;;;22.13;;
7375;SDS011;3728;42.266;24.944;2023-02-15T05:39:00;33.83;;;20.70;;
7375;SDS011;3728;42.266;24.944;2023-02-15T05:41:27;42.00;;;22.30;;
7375;SDS011;3728;42.266;24.944;2023-02-15T05:43:55;42.17;;;23.43;;
7375;SDS011;3728;42.266;24.944;2023-02-15T05:46:23;34.53;;;22.13;;
7375;SDS011;3728;42.266;24.944;2023-02-15T05:48:50;39.03;;;24.13;;
7375;SDS011;3728;42.266;24.944;2023-02-15T05:51:18;39.10;;;24.07;;
7375;SDS011;3728;42.266;24.944;2023-02-15T05:53:45;44.50;;;25.73;;
7375;SDS011;3728;42.266;24.944;2023-02-15T05:56:13;48.77;;;27.93;;
7375;SDS011;3728;42.266;24.944;2023-02-15T05:58:41;43.70;;;28.10;;
7375;SDS011;3728;42.266;24.944;2023-02-15T06:01:09;45.70;;;30.43;;
7375;SDS011;3728;42.266;24.944;2023-02-15T06:03:40;57.70;;;34.87;;
7375;SDS011;3728;42.266;24.944;2023-02-15T06:06:07;57.23;;;32.27;;
7375;SDS011;3728;42.266;24.944;2023-02-15T06:08:36;50.40;;;27.93;;
7375;SDS011;3728;42.266;24.944;2023-02-15T06:11:05;51.97;;;26.00;;
7375;SDS011;3728;42.266;24.944;2023-02-15T06:13:33;38.10;;;24.97;;
7375;SDS011;3728;42.266;24.944;2023-02-15T06:16:04;39.43;;;22.20;;
7375;SDS011;3728;42.266;24.944;2023-02-15T06:18:34;48.90;;;27.00;;
7375;SDS011;3728;42.266;24.944;2023-02-15T06:21:02;43.33;;;24.83;;
7375;SDS011;3728;42.266;24.944;2023-02-15T06:23:30;44.80;;;25.07;;
7375;SDS011;3728;42.266;24.944;2023-02-15T06:25:57;56.80;;;32.90;;
7375;SDS011;3728;42.266;24.944;2023-02-15T06:28:25;100.67;;;47.73;;
7375;SDS011;3728;42.266;24.944;2023-02-15T06:30:53;80.73;;;42.20;;
7375;SDS011;3728;42.266;24.944;2023-02-15T06:33:21;72.60;;;37.80;;
7375;SDS011;3728;42.266;24.944;2023-02-15T06:35:48;74.53;;;37.83;;
7375;SDS011;3728;42.266;24.944;2023-02-15T06:38:16;61.60;;;35.97;;
7375;SDS011;3728;42.266;24.944;2023-02-15T06:40:43;50.40;;;30.13;;
7375;SDS011;3728;42.266;24.944;2023-02-15T06:43:11;47.40;;;29.50;;
7375;SDS011;3728;42.266;24.944;2023-02-15T06:45:38;41.23;;;28.93;;
7375;SDS011;3728;42.266;24.944;2023-02-15T06:48:07;42.73;;;27.33;;
7375;SDS011;3728;42.266;24.944;2023-02-15T06:50:34;39.93;;;25.97;;
7375;SDS011;3728;42.266;24.944;2023-02-15T06:53:02;38.87;;;25.83;;
7375;SDS011;3728;42.266;24.944;2023-02-15T06:55:30;38.50;;;22.97;;
7375;SDS011;3728;42.266;24.944;2023-02-15T06:57:57;36.43;;;23.53;;
7375;SDS011;3728;42.266;24.944;2023-02-15T07:00:25;31.97;;;20.73;;
7375;SDS011;3728;42.266;24.944;2023-02-15T07:02:53;28.33;;;19.63;;
7375;SDS011;3728;42.266;24.944;2023-02-15T07:05:25;25.30;;;19.43;;
7375;SDS011;3728;42.266;24.944;2023-02-15T07:07:58;43.37;;;24.43;;
7375;SDS011;3728;42.266;24.944;2023-02-15T07:10:29;29.50;;;21.10;;
7375;SDS011;3728;42.266;24.944;2023-02-15T07:12:57;31.53;;;19.73;;
7375;SDS011;3728;42.266;24.944;2023-02-15T07:15:24;33.83;;;20.50;;
7375;SDS011;3728;42.266;24.944;2023-02-15T07:17:52;24.93;;;18.83;;
7375;SDS011;3728;42.266;24.944;2023-02-15T07:20:20;30.47;;;19.87;;
7375;SDS011;3728;42.266;24.944;2023-02-15T07:22:49;34.57;;;20.40;;
7375;SDS011;3728;42.266;24.944;2023-02-15T07:25:17;30.37;;;19.40;;
7375;SDS011;3728;42.266;24.944;2023-02-15T07:27:45;30.57;;;21.53;;
7375;SDS011;3728;42.266;24.944;2023-02-15T07:30:14;33.53;;;20.83;;
7375;SDS011;3728;42.266;24.944;2023-02-15T07:32:43;32.40;;;21.73;;
7375;SDS011;3728;42.266;24.944;2023-02-15T07:35:31;30.47;;;21.27;;
7375;SDS011;3728;42.266;24.944;2023-02-15T07:38:00;29.30;;;19.90;;
7375;SDS011;3728;42.266;24.944;2023-02-15T07:40:28;35.90;;;22.73;;
7375;SDS011;3728;42.266;24.944;2023-02-15T07:42:57;28.27;;;19.43;;
7375;SDS011;3728;42.266;24.944;2023-02-15T07:45:25;32.83;;;22.97;;
7375;SDS011;3728;42.266;24.944;2023-02-15T07:47:53;37.77;;;24.07;;
7375;SDS011;3728;42.266;24.944;2023-02-15T07:50:21;26.07;;;18.87;;
7375;SDS011;3728;42.266;24.944;2023-02-15T07:52:48;25.37;;;17.00;;
7375;SDS011;3728;42.266;24.944;2023-02-15T07:55:16;24.00;;;17.30;;
7375;SDS011;3728;42.266;24.944;2023-02-15T07:57:45;22.53;;;16.67;;
7375;SDS011;3728;42.266;24.944;2023-02-15T08:00:15;28.83;;;19.60;;
7375;SDS011;3728;42.266;24.944;2023-02-15T08:02:48;23.30;;;16.23;;
7375;SDS011;3728;42.266;24.944;2023-02-15T08:05:39;22.50;;;16.93;;
7375;SDS011;3728;42.266;24.944;2023-02-15T08:08:09;28.10;;;20.77;;
7375;SDS011;3728;42.266;24.944;2023-02-15T08:13:48;27.17;;;18.43;;
7375;SDS011;3728;42.266;24.944;2023-02-15T08:21:37;27.13;;;19.03;;
7375;SDS011;3728;42.266;24.944;2023-02-15T08:24:08;26.03;;;17.83;;
7375;SDS011;3728;42.266;24.944;2023-02-15T08:26:38;24.97;;;16.97;;
7375;SDS011;3728;42.266;24.944;2023-02-15T08:29:08;27.03;;;19.17;;
7375;SDS011;3728;42.266;24.944;2023-02-15T08:31:36;23.10;;;17.93;;
7375;SDS011;3728;42.266;24.944;2023-02-15T08:34:05;24.30;;;17.30;;
7375;SDS011;3728;42.266;24.944;2023-02-15T08:36:33;30.77;;;17.67;;
7375;SDS011;3728;42.266;24.944;2023-02-15T08:39:01;30.97;;;18.73;;
7375;SDS011;3728;42.266;24.944;2023-02-15T08:41:32;25.10;;;17.50;;
7375;SDS011;3728;42.266;24.944;2023-02-15T08:44:03;27.37;;;19.43;;
7375;SDS011;3728;42.266;24.944;2023-02-15T08:46:33;22.70;;;17.97;;
7375;SDS011;3728;42.266;24.944;2023-02-15T08:49:04;24.53;;;16.97;;
7375;SDS011;3728;42.266;24.944;2023-02-15T08:51:32;23.10;;;16.90;;
7375;SDS011;3728;42.266;24.944;2023-02-15T08:54:04;21.97;;;15.77;;
7375;SDS011;3728;42.266;24.944;2023-02-15T08:56:35;23.13;;;15.77;;
7375;SDS011;3728;42.266;24.944;2023-02-15T08:59:06;21.10;;;14.80;;
7375;SDS011;3728;42.266;24.944;2023-02-15T09:01:42;19.70;;;15.53;;
7375;SDS011;3728;42.266;24.944;2023-02-15T09:04:11;19.63;;;14.90;;
7375;SDS011;3728;42.266;24.944;2023-02-15T09:06:39;20.83;;;15.30;;
7375;SDS011;3728;42.266;24.944;2023-02-15T09:09:13;19.87;;;14.50;;
7375;SDS011;3728;42.266;24.944;2023-02-15T09:11:42;18.37;;;14.27;;
7375;SDS011;3728;42.266;24.944;2023-02-15T09:14:14;17.23;;;14.33;;
7375;SDS011;3728;42.266;24.944;2023-02-15T09:16:44;19.43;;;15.70;;
7375;SDS011;3728;42.266;24.944;2023-02-15T09:19:15;17.23;;;14.17;;
7375;SDS011;3728;42.266;24.944;2023-02-15T09:21:45;17.10;;;13.50;;
7375;SDS011;3728;42.266;24.944;2023-02-15T09:24:14;15.50;;;12.77;;
7375;SDS011;3728;42.266;24.944;2023-02-15T09:26:44;16.97;;;13.33;;
7375;SDS011;3728;42.266;24.944;2023-02-15T09:29:15;19.23;;;13.53;;
7375;SDS011;3728;42.266;24.944;2023-02-15T09:31:46;17.20;;;12.53;;
7375;SDS011;3728;42.266;24.944;2023-02-15T09:34:17;15.50;;;13.10;;
7375;SDS011;3728;42.266;24.944;2023-02-15T09:36:48;20.37;;;13.83;;
7375;SDS011;3728;42.266;24.944;2023-02-15T09:39:18;16.37;;;13.87;;
7375;SDS011;3728;42.266;24.944;2023-02-15T09:44:46;17.87;;;12.90;;
7375;SDS011;3728;42.266;24.944;2023-02-15T09:47:44;12.87;;;11.30;;
7375;SDS011;3728;42.266;24.944;2023-02-15T09:53:33;15.43;;;12.00;;
7375;SDS011;3728;42.266;24.944;2023-02-15T09:59:08;13.40;;;10.90;;
7375;SDS011;3728;42.266;24.944;2023-02-15T10:02:29;13.00;;;11.13;;
7375;SDS011;3728;42.266;24.944;2023-02-15T10:19:44;14.37;;;11.07;;
7375;SDS011;3728;42.266;24.944;2023-02-15T10:28:50;10.40;;;9.10;;
7375;SDS011;3728;42.266;24.944;2023-02-15T10:31:33;8.40;;;7.50;;
7375;SDS011;3728;42.266;24.944;2023-02-15T10:34:25;11.13;;;7.90;;
7375;SDS011;3728;42.266;24.944;2023-02-15T10:37:24;13.10;;;10.10;;
7375;SDS011;3728;42.266;24.944;2023-02-15T10:43:18;16.13;;;11.80;;
7375;SDS011;3728;42.266;24.944;2023-02-15T10:54:30;8.00;;;7.10;;
7375;SDS011;3728;42.266;24.944;2023-02-15T11:00:29;10.30;;;8.43;;
7375;SDS011;3728;42.266;24.944;2023-02-15T11:06:25;10.13;;;8.20;;
7375;SDS011;3728;42.266;24.944;2023-02-15T11:08:56;21.07;;;15.40;;
7375;SDS011;3728;42.266;24.944;2023-02-15T11:11:30;10.87;;;8.83;;
7375;SDS011;3728;42.266;24.944;2023-02-15T11:17:42;11.60;;;9.37;;
7375;SDS011;3728;42.266;24.944;2023-02-15T11:22:58;16.60;;;9.17;;
7375;SDS011;3728;42.266;24.944;2023-02-15T11:25:30;10.93;;;9.67;;
7375;SDS011;3728;42.266;24.944;2023-02-15T11:28:03;11.77;;;10.57;;
7375;SDS011;3728;42.266;24.944;2023-02-15T11:30:46;11.53;;;10.00;;
7375;SDS011;3728;42.266;24.944;2023-02-15T11:33:28;14.73;;;9.90;;
7375;SDS011;3728;42.266;24.944;2023-02-15T11:36:04;11.60;;;10.10;;
7375;SDS011;3728;42.266;24.944;2023-02-15T11:38:44;13.27;;;10.30;;
7375;SDS011;3728;42.266;24.944;2023-02-15T11:41:18;14.37;;;11.30;;
7375;SDS011;3728;42.266;24.944;2023-02-15T11:46:37;12.13;;;10.93;;
7375;SDS011;3728;42.266;24.944;2023-02-15T11:51:52;150.03;;;18.50;;
7375;SDS011;3728;42.266;24.944;2023-02-15T11:54:26;12.23;;;10.63;;
7375;SDS011;3728;42.266;24.944;2023-02-15T12:00:03;14.63;;;11.27;;
7375;SDS011;3728;42.266;24.944;2023-02-15T12:02:53;14.07;;;11.53;;
7375;SDS011;3728;42.266;24.944;2023-02-15T12:05:26;14.60;;;12.83;;
7375;SDS011;3728;42.266;24.944;2023-02-15T12:07:55;12.77;;;11.50;;
7375;SDS011;3728;42.266;24.944;2023-02-15T12:10:40;15.43;;;11.90;;
7375;SDS011;3728;42.266;24.944;2023-02-15T12:13:16;12.77;;;11.47;;
7375;SDS011;3728;42.266;24.944;2023-02-15T12:15:47;17.30;;;12.33;;
7375;SDS011;3728;42.266;24.944;2023-02-15T12:18:19;14.80;;;11.47;;
7375;SDS011;3728;42.266;24.944;2023-02-15T12:21:14;12.70;;;11.40;;
7375;SDS011;3728;42.266;24.944;2023-02-15T12:23:54;16.73;;;11.90;;
7375;SDS011;3728;42.266;24.944;2023-02-15T12:26:30;14.30;;;11.63;;
7375;SDS011;3728;42.266;24.944;2023-02-15T12:29:24;12.63;;;11.27;;
7375;SDS011;3728;42.266;24.944;2023-02-15T12:31:54;40.87;;;13.73;;
7375;SDS011;3728;42.266;24.944;2023-02-15T12:34:35;22.80;;;12.47;;
7375;SDS011;3728;42.266;24.944;2023-02-15T12:37:29;15.00;;;12.20;;
7375;SDS011;3728;42.266;24.944;2023-02-15T12:40:02;14.47;;;12.97;;
7375;SDS011;3728;42.266;24.944;2023-02-15T12:42:50;13.30;;;11.93;;
7375;SDS011;3728;42.266;24.944;2023-02-15T12:48:17;16.83;;;12.53;;
7375;SDS011;3728;42.266;24.944;2023-02-15T12:50:47;12.37;;;11.00;;
7375;SDS011;3728;42.266;24.944;2023-02-15T12:53:23;12.13;;;10.93;;
7375;SDS011;3728;42.266;24.944;2023-02-15T12:56:00;14.83;;;11.83;;
7375;SDS011;3728;42.266;24.944;2023-02-15T12:58:34;13.40;;;12.00;;
7375;SDS011;3728;42.266;24.944;2023-02-15T13:01:16;14.87;;;12.17;;
7375;SDS011;3728;42.266;24.944;2023-02-15T13:04:00;17.67;;;12.17;;
7375;SDS011;3728;42.266;24.944;2023-02-15T13:06:32;21.97;;;11.40;;
7375;SDS011;3728;42.266;24.944;2023-02-15T13:09:06;13.17;;;10.83;;
7375;SDS011;3728;42.266;24.944;2023-02-15T13:11:47;31.60;;;13.60;;
7375;SDS011;3728;42.266;24.944;2023-02-15T13:14:21;12.53;;;11.10;;
7375;SDS011;3728;42.266;24.944;2023-02-15T13:16:56;24.67;;;11.20;;
7375;SDS011;3728;42.266;24.944;2023-02-15T13:19:35;21.17;;;12.73;;
7375;SDS011;3728;42.266;24.944;2023-02-15T13:22:12;13.20;;;10.97;;
7375;SDS011;3728;42.266;24.944;2023-02-15T13:25:09;11.73;;;10.50;;
7375;SDS011;3728;42.266;24.944;2023-02-15T13:27:51;12.13;;;10.93;;
7375;SDS011;3728;42.266;24.944;2023-02-15T13:30:26;12.87;;;11.57;;
7375;SDS011;3728;42.266;24.944;2023-02-15T13:33:12;14.90;;;13.30;;
7375;SDS011;3728;42.266;24.944;2023-02-15T13:39:03;13.18;;;11.88;;
7375;SDS011;3728;42.266;24.944;2023-02-15T13:59:02;10.05;;;9.15;;
7375;SDS011;3728;42.266;24.944;2023-02-15T14:01:56;17.10;;;9.73;;
7375;SDS011;3728;42.266;24.944;2023-02-15T14:05:00;10.00;;;9.10;;
7375;SDS011;3728;42.266;24.944;2023-02-15T14:13:39;12.82;;;11.52;;
7375;SDS011;3728;42.266;24.944;2023-02-15T14:19:44;10.23;;;9.13;;
7375;SDS011;3728;42.266;24.944;2023-02-15T14:22:38;90.57;;;16.33;;
7375;SDS011;3728;42.266;24.944;2023-02-15T14:25:21;13.10;;;9.95;;
7375;SDS011;3728;42.266;24.944;2023-02-15T14:28:08;11.02;;;9.50;;
7375;SDS011;3728;42.266;24.944;2023-02-15T14:30:48;12.93;;;11.48;;
7375;SDS011;3728;42.266;24.944;2023-02-15T14:33:37;50.83;;;13.50;;
7375;SDS011;3728;42.266;24.944;2023-02-15T14:36:11;37.70;;;12.55;;
7375;SDS011;3728;42.266;24.944;2023-02-15T14:38:51;18.60;;;11.07;;
7375;SDS011;3728;42.266;24.944;2023-02-15T14:42:08;12.10;;;10.75;;
7375;SDS011;3728;42.266;24.944;2023-02-15T14:45:45;18.27;;;10.98;;
7375;SDS011;3728;42.266;24.944;2023-02-15T14:48:31;11.70;;;10.32;;
7375;SDS011;3728;42.266;24.944;2023-02-15T14:51:08;14.13;;;10.77;;
7375;SDS011;3728;42.266;24.944;2023-02-15T14:53:37;12.93;;;11.20;;
7375;SDS011;3728;42.266;24.944;2023-02-15T15:01:29;29.92;;;11.85;;
7375;SDS011;3728;42.266;24.944;2023-02-15T15:04:00;13.88;;;10.63;;
7375;SDS011;3728;42.266;24.944;2023-02-15T15:06:56;12.30;;;10.77;;
7375;SDS011;3728;42.266;24.944;2023-02-15T15:10:00;22.00;;;11.13;;
7375;SDS011;3728;42.266;24.944;2023-02-15T15:12:53;15.70;;;10.90;;
7375;SDS011;3728;42.266;24.944;2023-02-15T15:25:46;13.85;;;10.32;;
7375;SDS011;3728;42.266;24.944;2023-02-15T15:46:01;21.33;;;14.80;;
7375;SDS011;3728;42.266;24.944;2023-02-15T15:48:44;18.63;;;13.23;;
7375;SDS011;3728;42.266;24.944;2023-02-15T15:51:20;28.27;;;12.57;;
7375;SDS011;3728;42.266;24.944;2023-02-15T15:53:54;25.67;;;17.10;;
7375;SDS011;3728;42.266;24.944;2023-02-15T15:56:24;31.93;;;20.03;;
7375;SDS011;3728;42.266;24.944;2023-02-15T15:58:58;39.33;;;24.13;;
7375;SDS011;3728;42.266;24.944;2023-02-15T16:01:50;34.00;;;22.60;;
7375;SDS011;3728;42.266;24.944;2023-02-15T16:04:26;41.80;;;28.33;;
7375;SDS011;3728;42.266;24.944;2023-02-15T16:10:01;31.70;;;21.00;;
7375;SDS011;3728;42.266;24.944;2023-02-15T16:12:45;27.83;;;23.47;;
7375;SDS011;3728;42.266;24.944;2023-02-15T16:18:03;33.50;;;23.83;;
7375;SDS011;3728;42.266;24.944;2023-02-15T16:20:57;25.57;;;21.00;;
7375;SDS011;3728;42.266;24.944;2023-02-15T16:29:14;29.57;;;18.37;;
7375;SDS011;3728;42.266;24.944;2023-02-15T16:31:55;22.13;;;16.00;;
7375;SDS011;3728;42.266;24.944;2023-02-15T16:34:33;23.93;;;16.40;;
7375;SDS011;3728;42.266;24.944;2023-02-15T16:39:45;26.47;;;20.27;;
7375;SDS011;3728;42.266;24.944;2023-02-15T16:42:16;29.00;;;22.77;;
7375;SDS011;3728;42.266;24.944;2023-02-15T16:44:48;35.70;;;25.70;;
7375;SDS011;3728;42.266;24.944;2023-02-15T16:47:45;33.80;;;27.03;;
7375;SDS011;3728;42.266;24.944;2023-02-15T16:50:26;33.67;;;26.03;;
7375;SDS011;3728;42.266;24.944;2023-02-15T16:53:02;34.43;;;24.50;;
7375;SDS011;3728;42.266;24.944;2023-02-15T16:55:40;34.33;;;27.17;;
7375;SDS011;3728;42.266;24.944;2023-02-15T16:58:13;35.53;;;26.40;;
7375;SDS011;3728;42.266;24.944;2023-02-15T17:00:44;35.67;;;27.37;;
7375;SDS011;3728;42.266;24.944;2023-02-15T17:05:44;32.83;;;25.20;;
7375;SDS011;3728;42.266;24.944;2023-02-15T17:08:17;34.83;;;30.20;;
7375;SDS011;3728;42.266;24.944;2023-02-15T17:11:09;43.60;;;28.13;;
7375;SDS011;3728;42.266;24.944;2023-02-15T17:16:33;23.77;;;18.40;;
7375;SDS011;3728;42.266;24.944;2023-02-15T17:19:14;31.93;;;21.10;;
7375;SDS011;3728;42.266;24.944;2023-02-15T17:21:55;42.83;;;24.07;;
7375;SDS011;3728;42.266;24.944;2023-02-15T17:24:39;44.53;;;27.97;;
7375;SDS011;3728;42.266;24.944;2023-02-15T17:27:13;41.73;;;27.20;;
7375;SDS011;3728;42.266;24.944;2023-02-15T17:29:54;37.00;;;24.67;;
7375;SDS011;3728;42.266;24.944;2023-02-15T17:32:29;39.17;;;25.17;;
7375;SDS011;3728;42.266;24.944;2023-02-15T17:40:23;63.23;;;36.80;;
7375;SDS011;3728;42.266;24.944;2023-02-15T17:43:16;60.90;;;36.33;;
7375;SDS011;3728;42.266;24.944;2023-02-15T17:45:47;65.13;;;41.17;;
7375;SDS011;3728;42.266;24.944;2023-02-15T17:48:20;98.70;;;52.83;;
7375;SDS011;3728;42.266;24.944;2023-02-15T17:51:02;91.80;;;54.27;;
7375;SDS011;3728;42.266;24.944;2023-02-15T17:53:33;134.83;;;76.03;;
7375;SDS011;3728;42.266;24.944;2023-02-15T17:56:02;115.30;;;67.13;;
7375;SDS011;3728;42.266;24.944;2023-02-15T17:58:36;63.47;;;39.53;;
7375;SDS011;3728;42.266;24.944;2023-02-15T18:01:06;92.30;;;50.40;;
7375;SDS011;3728;42.266;24.944;2023-02-15T18:03:59;73.57;;;39.70;;
7375;SDS011;3728;42.266;24.944;2023-02-15T18:06:46;51.13;;;32.03;;
7375;SDS011;3728;42.266;24.944;2023-02-15T18:09:33;64.10;;;38.23;;
7375;SDS011;3728;42.266;24.944;2023-02-15T18:12:20;56.27;;;34.40;;
7375;SDS011;3728;42.266;24.944;2023-02-15T18:14:50;71.33;;;34.93;;
7375;SDS011;3728;42.266;24.944;2023-02-15T18:17:44;53.40;;;30.90;;
7375;SDS011;3728;42.266;24.944;2023-02-15T18:20:19;53.30;;;29.47;;
7375;SDS011;3728;42.266;24.944;2023-02-15T18:22:55;59.00;;;33.53;;
7375;SDS011;3728;42.266;24.944;2023-02-15T18:25:23;39.57;;;26.00;;